This is the latest recevied weather packets stored in our database for station/object W5MAI. If no packets are shown the sender has not sent any weather packets the latest 10 day(s).
| Time | Temp. | Humidity | Pressure | Rain* | Wind** | Luminosity | Snow |
|---|---|---|---|---|---|---|---|
| 1788264257 | 22.22° C | 91% | 1018.1 hPa | 0 mm | - | 0 W/m² | - |
| 1788263648 | 22.22° C | 91% | 1018.1 hPa | 0 mm | - | 0 W/m² | - |
| 1788263037 | 22.22° C | 91% | 1018.2 hPa | 0 mm | - | 0 W/m² | - |
| 1788262425 | 22.22° C | 91% | 1018.2 hPa | 0 mm | - | 0 W/m² | - |
| 1788261832 | 22.22° C | 91% | 1018.2 hPa | 0 mm | - | 0 W/m² | - |
| 1788261252 | 22.78° C | 91% | 1018.3 hPa | 0 mm | - | 0 W/m² | - |
| 1788260637 | 22.78° C | 91% | 1018.2 hPa | 0 mm | - | 0 W/m² | - |
| 1788260025 | 22.78° C | 90% | 1018.3 hPa | 0 mm | - | 0 W/m² | - |
| 1788259460 | 22.78° C | 90% | 1018.3 hPa | 0 mm | - | 0 W/m² | - |
| 1788258835 | 22.78° C | 90% | 1018.2 hPa | 0 mm | - | 0 W/m² | - |
| 1788231824 | 30.56° C | 61% | 1016.7 hPa | 0 mm | - | 0 W/m² | - |
| 1788231251 | 30.56° C | 60% | 1016.6 hPa | 0 mm | - | 0 W/m² | - |
| 1788230604 | 30.56° C | 59% | 1016.4 hPa | 0 mm | - | 0 W/m² | - |
| 1788229434 | 31.11° C | 58% | 1016 hPa | 0 mm | - | 0 W/m² | - |
| 1788228862 | 31.11° C | 58% | 1015.9 hPa | 0 mm | - | 0 W/m² | - |
| 1788228220 | 31.11° C | 57% | 1015.8 hPa | 0 mm | - | 0 W/m² | - |
| 1788227660 | 31.11° C | 56% | 1015.6 hPa | 0 mm | - | 0 W/m² | - |
| 1788227019 | 31.11° C | 54% | 1015.6 hPa | 0 mm | - | 0 W/m² | - |
| 1788226453 | 30.56° C | 54% | 1015.6 hPa | 0 mm | - | 0 W/m² | - |
| 1788225823 | 30.56° C | 56% | 1015.4 hPa | 0 mm | - | 0 W/m² | - |
| 1788225248 | 31.67° C | 55% | 1015.2 hPa | 0 mm | - | 0 W/m² | - |
| 1788224614 | 32.78° C | 52% | 1015.1 hPa | 0 mm | - | 0 W/m² | - |
| 1788224024 | 32.78° C | 49% | 1015.2 hPa | 0 mm | - | 5 W/m² | - |
| 1788223438 | 33.33° C | 49% | 1015.1 hPa | 0 mm | - | 14 W/m² | - |
| 1788222860 | 33.89° C | 47% | 1015.1 hPa | 0 mm | - | 21 W/m² | - |
* Rain latest hour (hover to see other rain measurements)
** Current wind speed in m/s (hover to see current wind gust speed)